sensor_id;sensor_type;location;lat;lon;timestamp;temperature;humidity
28175;SHT30;59417;44.788;10.334;2023-02-22T00:02:09;12.58;71.35
28175;SHT30;59417;44.788;10.334;2023-02-22T00:04:49;12.65;70.94
28175;SHT30;59417;44.788;10.334;2023-02-22T00:07:15;12.42;71.43
28175;SHT30;59417;44.788;10.334;2023-02-22T00:09:44;12.21;72.37
28175;SHT30;59417;44.788;10.334;2023-02-22T00:12:13;12.37;72.00
28175;SHT30;59417;44.788;10.334;2023-02-22T00:14:38;12.46;71.40
28175;SHT30;59417;44.788;10.334;2023-02-22T00:17:04;12.58;70.91
28175;SHT30;59417;44.788;10.334;2023-02-22T00:19:33;12.59;70.88
28175;SHT30;59417;44.788;10.334;2023-02-22T00:22:08;12.62;70.70
28175;SHT30;59417;44.788;10.334;2023-02-22T00:24:33;12.59;70.46
28175;SHT30;59417;44.788;10.334;2023-02-22T00:27:02;12.60;70.61
28175;SHT30;59417;44.788;10.334;2023-02-22T00:29:30;12.63;70.64
28175;SHT30;59417;44.788;10.334;2023-02-22T00:31:59;12.62;70.76
28175;SHT30;59417;44.788;10.334;2023-02-22T00:34:27;12.66;70.61
28175;SHT30;59417;44.788;10.334;2023-02-22T00:36:57;12.62;70.83
28175;SHT30;59417;44.788;10.334;2023-02-22T00:39:27;12.58;70.64
28175;SHT30;59417;44.788;10.334;2023-02-22T00:41:53;12.69;70.30
28175;SHT30;59417;44.788;10.334;2023-02-22T00:44:22;12.45;71.12
28175;SHT30;59417;44.788;10.334;2023-02-22T00:46:48;12.48;70.96
28175;SHT30;59417;44.788;10.334;2023-02-22T00:49:17;12.41;71.22
28175;SHT30;59417;44.788;10.334;2023-02-22T00:51:43;12.44;71.27
28175;SHT30;59417;44.788;10.334;2023-02-22T00:54:12;12.58;70.66
28175;SHT30;59417;44.788;10.334;2023-02-22T00:56:41;12.58;70.79
28175;SHT30;59417;44.788;10.334;2023-02-22T00:59:06;12.56;70.88
28175;SHT30;59417;44.788;10.334;2023-02-22T01:01:35;12.53;70.95
28175;SHT30;59417;44.788;10.334;2023-02-22T01:04:01;12.52;71.15
28175;SHT30;59417;44.788;10.334;2023-02-22T01:06:27;12.51;71.32
28175;SHT30;59417;44.788;10.334;2023-02-22T01:08:53;12.49;71.38
28175;SHT30;59417;44.788;10.334;2023-02-22T01:11:19;12.42;71.65
28175;SHT30;59417;44.788;10.334;2023-02-22T01:13:46;12.42;71.78
28175;SHT30;59417;44.788;10.334;2023-02-22T01:16:13;12.44;71.67
28175;SHT30;59417;44.788;10.334;2023-02-22T01:18:39;12.39;71.82
28175;SHT30;59417;44.788;10.334;2023-02-22T01:21:05;12.38;72.09
28175;SHT30;59417;44.788;10.334;2023-02-22T01:23:32;12.38;71.98
28175;SHT30;59417;44.788;10.334;2023-02-22T01:25:57;12.46;71.84
28175;SHT30;59417;44.788;10.334;2023-02-22T01:28:23;12.39;72.00
28175;SHT30;59417;44.788;10.334;2023-02-22T01:30:49;12.29;72.36
28175;SHT30;59417;44.788;10.334;2023-02-22T01:33:15;12.38;72.39
28175;SHT30;59417;44.788;10.334;2023-02-22T01:35:43;12.35;72.42
28175;SHT30;59417;44.788;10.334;2023-02-22T01:38:10;12.38;72.43
28175;SHT30;59417;44.788;10.334;2023-02-22T01:40:40;12.38;72.70
28175;SHT30;59417;44.788;10.334;2023-02-22T01:43:28;12.34;72.76
28175;SHT30;59417;44.788;10.334;2023-02-22T01:46:02;12.35;72.76
28175;SHT30;59417;44.788;10.334;2023-02-22T01:48:45;12.32;73.09
28175;SHT30;59417;44.788;10.334;2023-02-22T01:51:22;12.27;73.22
28175;SHT30;59417;44.788;10.334;2023-02-22T01:53:58;12.27;73.44
28175;SHT30;59417;44.788;10.334;2023-02-22T01:56:28;12.16;73.81
28175;SHT30;59417;44.788;10.334;2023-02-22T01:59:02;12.22;73.67
28175;SHT30;59417;44.788;10.334;2023-02-22T02:01:31;12.25;73.65
28175;SHT30;59417;44.788;10.334;2023-02-22T02:04:00;12.20;73.93
28175;SHT30;59417;44.788;10.334;2023-02-22T02:06:27;12.20;73.88
28175;SHT30;59417;44.788;10.334;2023-02-22T02:11:45;12.21;73.86
28175;SHT30;59417;44.788;10.334;2023-02-22T02:14:13;12.17;73.99
28175;SHT30;59417;44.788;10.334;2023-02-22T02:16:45;12.07;74.38
28175;SHT30;59417;44.788;10.334;2023-02-22T02:19:44;11.99;74.79
28175;SHT30;59417;44.788;10.334;2023-02-22T02:38:03;12.16;74.68
28175;SHT30;59417;44.788;10.334;2023-02-22T02:40:40;12.09;74.80
28175;SHT30;59417;44.788;10.334;2023-02-22T02:43:31;12.14;74.71
28175;SHT30;59417;44.788;10.334;2023-02-22T02:46:14;12.05;74.91
28175;SHT30;59417;44.788;10.334;2023-02-22T02:48:59;11.94;75.46
28175;SHT30;59417;44.788;10.334;2023-02-22T02:51:35;11.97;75.47
28175;SHT30;59417;44.788;10.334;2023-02-22T02:54:02;11.88;75.62
28175;SHT30;59417;44.788;10.334;2023-02-22T02:56:37;12.01;75.32
28175;SHT30;59417;44.788;10.334;2023-02-22T02:59:23;12.01;75.38
28175;SHT30;59417;44.788;10.334;2023-02-22T03:10:12;11.97;75.66
28175;SHT30;59417;44.788;10.334;2023-02-22T03:18:08;11.88;75.89
28175;SHT30;59417;44.788;10.334;2023-02-22T03:20:42;11.77;76.15
28175;SHT30;59417;44.788;10.334;2023-02-22T03:23:22;11.87;75.91
28175;SHT30;59417;44.788;10.334;2023-02-22T03:26:04;11.81;76.14
28175;SHT30;59417;44.788;10.334;2023-02-22T03:28:35;11.83;76.04
28175;SHT30;59417;44.788;10.334;2023-02-22T03:31:08;11.86;75.87
28175;SHT30;59417;44.788;10.334;2023-02-22T03:33:57;11.87;75.81
28175;SHT30;59417;44.788;10.334;2023-02-22T03:36:32;11.86;75.92
28175;SHT30;59417;44.788;10.334;2023-02-22T03:39:13;11.93;75.88
28175;SHT30;59417;44.788;10.334;2023-02-22T03:41:48;11.94;75.73
28175;SHT30;59417;44.788;10.334;2023-02-22T03:44:24;12.02;75.54
28175;SHT30;59417;44.788;10.334;2023-02-22T03:47:01;11.99;75.51
28175;SHT30;59417;44.788;10.334;2023-02-22T03:49:41;11.99;75.42
28175;SHT30;59417;44.788;10.334;2023-02-22T03:52:12;11.83;75.85
28175;SHT30;59417;44.788;10.334;2023-02-22T03:54:40;11.88;75.92
28175;SHT30;59417;44.788;10.334;2023-02-22T03:57:22;11.93;75.61
28175;SHT30;59417;44.788;10.334;2023-02-22T03:59:59;11.86;75.97
28175;SHT30;59417;44.788;10.334;2023-02-22T04:02:25;11.95;75.58
28175;SHT30;59417;44.788;10.334;2023-02-22T04:04:54;11.97;75.51
28175;SHT30;59417;44.788;10.334;2023-02-22T04:07:20;11.90;75.68
28175;SHT30;59417;44.788;10.334;2023-02-22T04:09:48;11.95;75.49
28175;SHT30;59417;44.788;10.334;2023-02-22T04:12:15;11.97;75.35
28175;SHT30;59417;44.788;10.334;2023-02-22T04:14:52;11.88;75.75
28175;SHT30;59417;44.788;10.334;2023-02-22T04:17:18;11.90;75.55
28175;SHT30;59417;44.788;10.334;2023-02-22T04:19:45;11.77;75.97
28175;SHT30;59417;44.788;10.334;2023-02-22T04:22:12;11.78;76.10
28175;SHT30;59417;44.788;10.334;2023-02-22T04:24:41;11.69;76.44
28175;SHT30;59417;44.788;10.334;2023-02-22T04:27:07;11.73;76.23
28175;SHT30;59417;44.788;10.334;2023-02-22T04:29:36;11.77;76.02
28175;SHT30;59417;44.788;10.334;2023-02-22T04:32:05;11.86;75.79
28175;SHT30;59417;44.788;10.334;2023-02-22T04:34:31;11.81;75.94
28175;SHT30;59417;44.788;10.334;2023-02-22T04:36:57;11.83;75.97
28175;SHT30;59417;44.788;10.334;2023-02-22T04:39:23;11.71;76.30
28175;SHT30;59417;44.788;10.334;2023-02-22T04:41:50;11.74;76.34
28175;SHT30;59417;44.788;10.334;2023-02-22T04:44:16;11.70;76.29
28175;SHT30;59417;44.788;10.334;2023-02-22T04:46:44;11.77;76.10
28175;SHT30;59417;44.788;10.334;2023-02-22T04:49:13;11.84;75.79
28175;SHT30;59417;44.788;10.334;2023-02-22T04:51:41;11.91;75.54
28175;SHT30;59417;44.788;10.334;2023-02-22T04:54:16;11.91;75.64
28175;SHT30;59417;44.788;10.334;2023-02-22T04:56:53;11.94;75.48
28175;SHT30;59417;44.788;10.334;2023-02-22T04:59:22;11.84;75.81
28175;SHT30;59417;44.788;10.334;2023-02-22T05:02:04;11.74;76.24
28175;SHT30;59417;44.788;10.334;2023-02-22T05:04:32;11.74;76.07
28175;SHT30;59417;44.788;10.334;2023-02-22T05:07:03;11.83;76.10
28175;SHT30;59417;44.788;10.334;2023-02-22T05:09:37;11.83;75.99
28175;SHT30;59417;44.788;10.334;2023-02-22T05:12:03;11.87;75.89
28175;SHT30;59417;44.788;10.334;2023-02-22T05:14:32;11.73;76.42
28175;SHT30;59417;44.788;10.334;2023-02-22T05:17:01;11.66;76.76
28175;SHT30;59417;44.788;10.334;2023-02-22T05:19:27;11.66;76.76
28175;SHT30;59417;44.788;10.334;2023-02-22T05:21:56;11.74;76.44
28175;SHT30;59417;44.788;10.334;2023-02-22T05:24:22;11.80;76.22
28175;SHT30;59417;44.788;10.334;2023-02-22T05:26:57;11.76;76.30
28175;SHT30;59417;44.788;10.334;2023-02-22T05:29:27;11.71;76.33
28175;SHT30;59417;44.788;10.334;2023-02-22T05:31:54;11.55;76.99
28175;SHT30;59417;44.788;10.334;2023-02-22T05:34:21;11.47;77.36
28175;SHT30;59417;44.788;10.334;2023-02-22T05:36:50;11.52;77.15
28175;SHT30;59417;44.788;10.334;2023-02-22T05:39:19;11.49;77.29
28175;SHT30;59417;44.788;10.334;2023-02-22T05:41:45;11.45;77.44
28175;SHT30;59417;44.788;10.334;2023-02-22T05:44:14;11.47;77.36
28175;SHT30;59417;44.788;10.334;2023-02-22T05:46:45;11.50;76.98
28175;SHT30;59417;44.788;10.334;2023-02-22T05:49:11;11.49;77.01
28175;SHT30;59417;44.788;10.334;2023-02-22T05:51:41;11.46;77.24
28175;SHT30;59417;44.788;10.334;2023-02-22T05:54:09;11.43;77.44
28175;SHT30;59417;44.788;10.334;2023-02-22T05:56:45;11.43;77.32
28175;SHT30;59417;44.788;10.334;2023-02-22T05:59:23;11.39;77.50
28175;SHT30;59417;44.788;10.334;2023-02-22T06:01:49;11.46;77.38
28175;SHT30;59417;44.788;10.334;2023-02-22T06:04:14;11.50;77.16
28175;SHT30;59417;44.788;10.334;2023-02-22T06:06:42;11.45;77.26
28175;SHT30;59417;44.788;10.334;2023-02-22T06:09:08;11.50;77.13
28175;SHT30;59417;44.788;10.334;2023-02-22T06:11:34;11.55;76.92
28175;SHT30;59417;44.788;10.334;2023-02-22T06:14:00;11.52;76.96
28175;SHT30;59417;44.788;10.334;2023-02-22T06:16:28;11.62;76.70
28175;SHT30;59417;44.788;10.334;2023-02-22T06:23:08;11.46;76.98
28175;SHT30;59417;44.788;10.334;2023-02-22T06:25:42;11.50;76.74
28175;SHT30;59417;44.788;10.334;2023-02-22T06:28:10;11.49;76.77
28175;SHT30;59417;44.788;10.334;2023-02-22T06:30:39;11.53;76.73
28175;SHT30;59417;44.788;10.334;2023-02-22T06:33:10;11.45;77.04
28175;SHT30;59417;44.788;10.334;2023-02-22T06:35:37;11.40;77.20
28175;SHT30;59417;44.788;10.334;2023-02-22T06:38:03;11.40;77.34
28175;SHT30;59417;44.788;10.334;2023-02-22T06:40:38;11.43;77.20
28175;SHT30;59417;44.788;10.334;2023-02-22T06:43:07;11.42;77.31
28175;SHT30;59417;44.788;10.334;2023-02-22T06:45:44;11.38;77.29
28175;SHT30;59417;44.788;10.334;2023-02-22T06:48:13;11.40;77.22
28175;SHT30;59417;44.788;10.334;2023-02-22T06:50:50;11.45;77.06
28175;SHT30;59417;44.788;10.334;2023-02-22T06:53:27;11.45;77.17
28175;SHT30;59417;44.788;10.334;2023-02-22T06:56:15;11.42;77.22
28175;SHT30;59417;44.788;10.334;2023-02-22T06:58:44;11.38;77.22
28175;SHT30;59417;44.788;10.334;2023-02-22T07:01:26;11.32;77.54
28175;SHT30;59417;44.788;10.334;2023-02-22T07:03:55;11.38;77.46
28175;SHT30;59417;44.788;10.334;2023-02-22T07:06:26;11.42;77.13
28175;SHT30;59417;44.788;10.334;2023-02-22T07:08:57;11.35;77.37
28175;SHT30;59417;44.788;10.334;2023-02-22T07:11:26;11.38;77.19
28175;SHT30;59417;44.788;10.334;2023-02-22T07:13:58;11.43;76.92
28175;SHT30;59417;44.788;10.334;2023-02-22T07:16:23;11.40;77.00
28175;SHT30;59417;44.788;10.334;2023-02-22T07:18:54;11.40;77.05
28175;SHT30;59417;44.788;10.334;2023-02-22T07:21:21;11.49;76.69
28175;SHT30;59417;44.788;10.334;2023-02-22T07:23:56;11.42;77.04
28175;SHT30;59417;44.788;10.334;2023-02-22T07:26:26;11.45;77.05
28175;SHT30;59417;44.788;10.334;2023-02-22T07:28:53;11.47;76.92
28175;SHT30;59417;44.788;10.334;2023-02-22T07:31:19;11.53;76.55
28175;SHT30;59417;44.788;10.334;2023-02-22T07:33:45;11.42;77.38
28175;SHT30;59417;44.788;10.334;2023-02-22T07:36:19;11.42;77.39
28175;SHT30;59417;44.788;10.334;2023-02-22T07:38:45;11.43;77.26
28175;SHT30;59417;44.788;10.334;2023-02-22T07:41:13;11.49;76.83
28175;SHT30;59417;44.788;10.334;2023-02-22T07:43:38;11.52;76.85
28175;SHT30;59417;44.788;10.334;2023-02-22T07:46:13;11.46;76.89
28175;SHT30;59417;44.788;10.334;2023-02-22T07:48:39;11.47;77.03
28175;SHT30;59417;44.788;10.334;2023-02-22T07:51:14;11.56;76.92
28175;SHT30;59417;44.788;10.334;2023-02-22T07:53:45;11.56;76.92
28175;SHT30;59417;44.788;10.334;2023-02-22T07:56:22;11.59;76.69
28175;SHT30;59417;44.788;10.334;2023-02-22T07:59:08;11.69;76.32
28175;SHT30;59417;44.788;10.334;2023-02-22T08:01:42;11.74;76.18
28175;SHT30;59417;44.788;10.334;2023-02-22T08:04:08;11.70;76.12
28175;SHT30;59417;44.788;10.334;2023-02-22T08:06:40;11.69;76.32
28175;SHT30;59417;44.788;10.334;2023-02-22T08:09:12;11.91;75.28
28175;SHT30;59417;44.788;10.334;2023-02-22T08:11:40;11.86;75.25
28175;SHT30;59417;44.788;10.334;2023-02-22T08:14:07;11.76;75.73
28175;SHT30;59417;44.788;10.334;2023-02-22T08:16:36;11.81;75.73
28175;SHT30;59417;44.788;10.334;2023-02-22T08:19:02;11.77;75.67
28175;SHT30;59417;44.788;10.334;2023-02-22T08:21:28;11.74;75.94
28175;SHT30;59417;44.788;10.334;2023-02-22T08:23:57;11.71;76.08
28175;SHT30;59417;44.788;10.334;2023-02-22T08:26:26;11.80;76.05
28175;SHT30;59417;44.788;10.334;2023-02-22T08:28:52;11.84;75.65
28175;SHT30;59417;44.788;10.334;2023-02-22T08:31:18;11.90;75.48
28175;SHT30;59417;44.788;10.334;2023-02-22T08:33:51;11.93;75.44
28175;SHT30;59417;44.788;10.334;2023-02-22T08:36:17;11.91;75.58
28175;SHT30;59417;44.788;10.334;2023-02-22T08:38:45;11.86;75.78
28175;SHT30;59417;44.788;10.334;2023-02-22T08:41:11;11.90;75.54
28175;SHT30;59417;44.788;10.334;2023-02-22T08:43:39;11.90;75.70
28175;SHT30;59417;44.788;10.334;2023-02-22T08:46:08;11.94;76.08
28175;SHT30;59417;44.788;10.334;2023-02-22T08:48:34;11.99;76.01
28175;SHT30;59417;44.788;10.334;2023-02-22T08:51:05;12.05;76.00
28175;SHT30;59417;44.788;10.334;2023-02-22T08:53:33;12.11;75.48
28175;SHT30;59417;44.788;10.334;2023-02-22T08:56:01;12.13;75.32
28175;SHT30;59417;44.788;10.334;2023-02-22T08:58:27;12.14;75.19
28175;SHT30;59417;44.788;10.334;2023-02-22T09:00:55;12.11;74.81
28175;SHT30;59417;44.788;10.334;2023-02-22T09:03:22;12.18;74.64
28175;SHT30;59417;44.788;10.334;2023-02-22T09:05:51;12.18;74.91
28175;SHT30;59417;44.788;10.334;2023-02-22T09:08:28;12.18;75.12
28175;SHT30;59417;44.788;10.334;2023-02-22T09:10:55;12.18;74.72
28175;SHT30;59417;44.788;10.334;2023-02-22T09:13:25;12.05;75.34
28175;SHT30;59417;44.788;10.334;2023-02-22T09:15:51;12.08;75.11
28175;SHT30;59417;44.788;10.334;2023-02-22T09:18:20;12.04;75.54
28175;SHT30;59417;44.788;10.334;2023-02-22T09:20:46;12.14;75.26
28175;SHT30;59417;44.788;10.334;2023-02-22T09:23:14;12.09;75.57
28175;SHT30;59417;44.788;10.334;2023-02-22T09:25:43;12.16;75.53
28175;SHT30;59417;44.788;10.334;2023-02-22T09:28:18;12.21;75.03
28175;SHT30;59417;44.788;10.334;2023-02-22T09:30:54;12.09;75.45
28175;SHT30;59417;44.788;10.334;2023-02-22T09:33:21;12.11;75.51
28175;SHT30;59417;44.788;10.334;2023-02-22T09:35:53;12.16;75.44
28175;SHT30;59417;44.788;10.334;2023-02-22T09:38:21;12.16;75.65
28175;SHT30;59417;44.788;10.334;2023-02-22T09:41:10;12.22;75.29
28175;SHT30;59417;44.788;10.334;2023-02-22T09:43:48;12.27;75.30
28175;SHT30;59417;44.788;10.334;2023-02-22T09:46:29;12.32;75.46
28175;SHT30;59417;44.788;10.334;2023-02-22T09:54:28;12.48;75.74
28175;SHT30;59417;44.788;10.334;2023-02-22T09:57:30;12.53;75.94
28175;SHT30;59417;44.788;10.334;2023-02-22T10:00:07;12.56;75.97
28175;SHT30;59417;44.788;10.334;2023-02-22T10:02:55;12.70;75.70
28175;SHT30;59417;44.788;10.334;2023-02-22T10:05:44;12.65;75.73
28175;SHT30;59417;44.788;10.334;2023-02-22T10:08:13;12.72;75.18
28175;SHT30;59417;44.788;10.334;2023-02-22T10:10:46;12.72;75.14
28175;SHT30;59417;44.788;10.334;2023-02-22T10:13:24;12.73;75.11
28175;SHT30;59417;44.788;10.334;2023-02-22T10:16:01;12.79;75.20
28175;SHT30;59417;44.788;10.334;2023-02-22T10:18:44;12.79;75.13
28175;SHT30;59417;44.788;10.334;2023-02-22T10:21:34;12.86;75.05
28175;SHT30;59417;44.788;10.334;2023-02-22T10:27:29;12.84;75.03
28175;SHT30;59417;44.788;10.334;2023-02-22T10:30:13;12.86;74.98
28175;SHT30;59417;44.788;10.334;2023-02-22T10:33:16;12.90;75.00
28175;SHT30;59417;44.788;10.334;2023-02-22T10:35:53;12.92;74.39
28175;SHT30;59417;44.788;10.334;2023-02-22T10:38:30;12.93;74.41
28175;SHT30;59417;44.788;10.334;2023-02-22T10:41:20;12.92;75.03
28175;SHT30;59417;44.788;10.334;2023-02-22T10:43:51;12.96;74.86
28175;SHT30;59417;44.788;10.334;2023-02-22T10:46:26;13.00;74.91
28175;SHT30;59417;44.788;10.334;2023-02-22T10:52:25;13.04;74.59
28175;SHT30;59417;44.788;10.334;2023-02-22T10:55:13;13.13;74.37
28175;SHT30;59417;44.788;10.334;2023-02-22T11:01:32;13.04;74.55
28175;SHT30;59417;44.788;10.334;2023-02-22T11:04:01;13.10;74.33
28175;SHT30;59417;44.788;10.334;2023-02-22T11:06:32;13.17;74.24
28175;SHT30;59417;44.788;10.334;2023-02-22T11:09:17;13.24;73.77
28175;SHT30;59417;44.788;10.334;2023-02-22T11:11:46;13.24;73.98
28175;SHT30;59417;44.788;10.334;2023-02-22T11:14:26;12.93;74.27
28175;SHT30;59417;44.788;10.334;2023-02-22T11:17:05;13.07;74.24
28175;SHT30;59417;44.788;10.334;2023-02-22T11:19:45;12.96;74.09
28175;SHT30;59417;44.788;10.334;2023-02-22T11:25:24;13.02;73.90
28175;SHT30;59417;44.788;10.334;2023-02-22T11:28:29;12.93;74.53
28175;SHT30;59417;44.788;10.334;2023-02-22T11:31:41;13.14;73.94
28175;SHT30;59417;44.788;10.334;2023-02-22T11:34:45;13.20;74.16
28175;SHT30;59417;44.788;10.334;2023-02-22T11:37:34;13.24;74.20
28175;SHT30;59417;44.788;10.334;2023-02-22T11:40:07;13.38;72.53
28175;SHT30;59417;44.788;10.334;2023-02-22T11:42:49;13.30;72.68
28175;SHT30;59417;44.788;10.334;2023-02-22T11:45:23;13.26;73.51
28175;SHT30;59417;44.788;10.334;2023-02-22T11:47:55;13.31;73.01
28175;SHT30;59417;44.788;10.334;2023-02-22T11:50:57;13.30;73.62
28175;SHT30;59417;44.788;10.334;2023-02-22T11:56:34;13.48;73.51
28175;SHT30;59417;44.788;10.334;2023-02-22T12:08:14;13.66;72.16
28175;SHT30;59417;44.788;10.334;2023-02-22T12:10:58;13.57;71.62
28175;SHT30;59417;44.788;10.334;2023-02-22T12:13:53;13.53;72.09
28175;SHT30;59417;44.788;10.334;2023-02-22T12:19:35;13.71;72.00
28175;SHT30;59417;44.788;10.334;2023-02-22T12:22:21;13.78;71.90
28175;SHT30;59417;44.788;10.334;2023-02-22T12:24:55;13.88;71.08
28175;SHT30;59417;44.788;10.334;2023-02-22T12:27:37;13.82;71.51
28175;SHT30;59417;44.788;10.334;2023-02-22T12:30:34;13.81;70.78
28175;SHT30;59417;44.788;10.334;2023-02-22T12:33:14;13.84;70.44
28175;SHT30;59417;44.788;10.334;2023-02-22T12:42:17;13.65;71.47
28175;SHT30;59417;44.788;10.334;2023-02-22T12:45:11;13.78;71.79
28175;SHT30;59417;44.788;10.334;2023-02-22T12:48:30;14.04;70.68
28175;SHT30;59417;44.788;10.334;2023-02-22T12:51:45;13.98;70.19
28175;SHT30;59417;44.788;10.334;2023-02-22T12:54:21;13.77;71.13
28175;SHT30;59417;44.788;10.334;2023-02-22T12:57:02;13.75;71.29
28175;SHT30;59417;44.788;10.334;2023-02-22T12:59:36;13.84;71.52
28175;SHT30;59417;44.788;10.334;2023-02-22T13:02:20;13.81;72.36
28175;SHT30;59417;44.788;10.334;2023-02-22T13:04:47;13.70;71.92
28175;SHT30;59417;44.788;10.334;2023-02-22T13:20:22;14.13;71.65
28175;SHT30;59417;44.788;10.334;2023-02-22T13:25:58;14.08;71.54
28175;SHT30;59417;44.788;10.334;2023-02-22T13:28:42;14.09;71.62
28175;SHT30;59417;44.788;10.334;2023-02-22T13:36:36;14.08;71.79
28175;SHT30;59417;44.788;10.334;2023-02-22T13:48:04;14.06;71.01
28175;SHT30;59417;44.788;10.334;2023-02-22T13:53:21;14.04;71.85
28175;SHT30;59417;44.788;10.334;2023-02-22T13:55:53;14.12;71.41
28175;SHT30;59417;44.788;10.334;2023-02-22T13:58:21;14.08;71.48
28175;SHT30;59417;44.788;10.334;2023-02-22T14:00:54;14.06;71.66
28175;SHT30;59417;44.788;10.334;2023-02-22T14:05:57;14.17;71.36
28175;SHT30;59417;44.788;10.334;2023-02-22T14:11:05;14.09;71.28
28175;SHT30;59417;44.788;10.334;2023-02-22T14:16:30;14.05;72.08
28175;SHT30;59417;44.788;10.334;2023-02-22T14:19:20;14.04;72.20
28175;SHT30;59417;44.788;10.334;2023-02-22T14:21:59;14.09;71.95
28175;SHT30;59417;44.788;10.334;2023-02-22T14:24:48;14.09;72.43
28175;SHT30;59417;44.788;10.334;2023-02-22T14:27:15;14.15;72.04
28175;SHT30;59417;44.788;10.334;2023-02-22T14:29:56;14.12;71.95
28175;SHT30;59417;44.788;10.334;2023-02-22T14:32:32;14.10;71.90
28175;SHT30;59417;44.788;10.334;2023-02-22T14:35:04;14.02;72.29
28175;SHT30;59417;44.788;10.334;2023-02-22T14:37:38;14.08;72.07
28175;SHT30;59417;44.788;10.334;2023-02-22T14:40:17;14.04;72.07
28175;SHT30;59417;44.788;10.334;2023-02-22T14:42:49;14.12;71.81
28175;SHT30;59417;44.788;10.334;2023-02-22T14:45:31;14.02;72.15
28175;SHT30;59417;44.788;10.334;2023-02-22T14:48:35;13.99;72.45
28175;SHT30;59417;44.788;10.334;2023-02-22T14:51:18;14.01;72.32
28175;SHT30;59417;44.788;10.334;2023-02-22T14:53:48;14.02;72.51
28175;SHT30;59417;44.788;10.334;2023-02-22T14:56:37;13.96;72.86
28175;SHT30;59417;44.788;10.334;2023-02-22T14:59:20;13.96;72.71
28175;SHT30;59417;44.788;10.334;2023-02-22T15:01:48;13.99;72.72
28175;SHT30;59417;44.788;10.334;2023-02-22T15:04:29;13.95;72.82
28175;SHT30;59417;44.788;10.334;2023-02-22T15:06:58;13.98;72.88
28175;SHT30;59417;44.788;10.334;2023-02-22T15:09:29;13.99;72.76
28175;SHT30;59417;44.788;10.334;2023-02-22T15:14:32;13.89;73.33
28175;SHT30;59417;44.788;10.334;2023-02-22T15:17:11;13.89;73.08
28175;SHT30;59417;44.788;10.334;2023-02-22T15:19:39;13.98;72.51
28175;SHT30;59417;44.788;10.334;2023-02-22T15:22:18;13.91;72.79
28175;SHT30;59417;44.788;10.334;2023-02-22T15:25:14;13.94;72.91
28175;SHT30;59417;44.788;10.334;2023-02-22T15:27:40;13.96;72.84
28175;SHT30;59417;44.788;10.334;2023-02-22T15:30:22;13.96;72.88
28175;SHT30;59417;44.788;10.334;2023-02-22T15:32:51;13.92;73.09
28175;SHT30;59417;44.788;10.334;2023-02-22T15:38:16;13.86;73.08
28175;SHT30;59417;44.788;10.334;2023-02-22T15:40:44;13.81;73.49
28175;SHT30;59417;44.788;10.334;2023-02-22T15:43:22;13.82;73.47
28175;SHT30;59417;44.788;10.334;2023-02-22T15:45:50;13.82;73.44
28175;SHT30;59417;44.788;10.334;2023-02-22T15:48:16;13.86;73.40
28175;SHT30;59417;44.788;10.334;2023-02-22T15:51:10;13.82;73.42
28175;SHT30;59417;44.788;10.334;2023-02-22T15:53:44;13.78;73.63
28175;SHT30;59417;44.788;10.334;2023-02-22T15:56:14;13.68;73.89
28175;SHT30;59417;44.788;10.334;2023-02-22T15:58:41;13.70;73.93
28175;SHT30;59417;44.788;10.334;2023-02-22T16:01:12;13.74;73.86
28175;SHT30;59417;44.788;10.334;2023-02-22T16:03:53;13.66;73.91
28175;SHT30;59417;44.788;10.334;2023-02-22T16:06:46;13.78;73.61
28175;SHT30;59417;44.788;10.334;2023-02-22T16:09:19;13.66;74.03
28175;SHT30;59417;44.788;10.334;2023-02-22T16:11:51;13.65;74.34
28175;SHT30;59417;44.788;10.334;2023-02-22T16:19:56;13.77;73.78
28175;SHT30;59417;44.788;10.334;2023-02-22T16:27:47;13.58;74.69
28175;SHT30;59417;44.788;10.334;2023-02-22T16:30:26;13.55;74.59
28175;SHT30;59417;44.788;10.334;2023-02-22T16:32:54;13.53;74.77
28175;SHT30;59417;44.788;10.334;2023-02-22T16:35:21;13.43;75.06
28175;SHT30;59417;44.788;10.334;2023-02-22T16:38:10;13.30;75.44
28175;SHT30;59417;44.788;10.334;2023-02-22T16:40:54;13.43;74.98
28175;SHT30;59417;44.788;10.334;2023-02-22T16:43:32;13.48;74.88
28175;SHT30;59417;44.788;10.334;2023-02-22T16:46:00;13.51;74.98
28175;SHT30;59417;44.788;10.334;2023-02-22T16:48:28;13.65;74.43
28175;SHT30;59417;44.788;10.334;2023-02-22T16:50:57;13.51;74.58
28175;SHT30;59417;44.788;10.334;2023-02-22T16:53:24;13.48;74.87
28175;SHT30;59417;44.788;10.334;2023-02-22T16:55:51;13.50;74.76
28175;SHT30;59417;44.788;10.334;2023-02-22T16:58:22;13.38;75.00
28175;SHT30;59417;44.788;10.334;2023-02-22T17:00:53;13.41;75.12
28175;SHT30;59417;44.788;10.334;2023-02-22T17:03:22;13.48;74.95
28175;SHT30;59417;44.788;10.334;2023-02-22T17:05:47;13.47;74.88
28175;SHT30;59417;44.788;10.334;2023-02-22T17:08:13;13.45;74.88
28175;SHT30;59417;44.788;10.334;2023-02-22T17:10:41;13.44;74.94
28175;SHT30;59417;44.788;10.334;2023-02-22T17:13:07;13.45;74.69
28175;SHT30;59417;44.788;10.334;2023-02-22T17:15:34;13.44;74.74
28175;SHT30;59417;44.788;10.334;2023-02-22T17:18:02;13.57;74.30
28175;SHT30;59417;44.788;10.334;2023-02-22T17:20:29;13.48;74.48
28175;SHT30;59417;44.788;10.334;2023-02-22T17:22:57;13.45;74.61
28175;SHT30;59417;44.788;10.334;2023-02-22T17:25:41;13.47;74.65
28175;SHT30;59417;44.788;10.334;2023-02-22T17:28:08;13.44;74.69
28175;SHT30;59417;44.788;10.334;2023-02-22T17:30:35;13.44;74.76
28175;SHT30;59417;44.788;10.334;2023-02-22T17:33:02;13.45;74.83
28175;SHT30;59417;44.788;10.334;2023-02-22T17:35:30;13.47;74.67
28175;SHT30;59417;44.788;10.334;2023-02-22T17:37:58;13.38;74.98
28175;SHT30;59417;44.788;10.334;2023-02-22T17:40:25;13.48;74.71
28175;SHT30;59417;44.788;10.334;2023-02-22T17:42:51;13.35;74.63
28175;SHT30;59417;44.788;10.334;2023-02-22T17:45:21;13.30;75.00
28175;SHT30;59417;44.788;10.334;2023-02-22T17:47:51;13.28;75.12
28175;SHT30;59417;44.788;10.334;2023-02-22T17:50:21;13.33;75.07
28175;SHT30;59417;44.788;10.334;2023-02-22T17:52:48;13.38;74.86
28175;SHT30;59417;44.788;10.334;2023-02-22T17:55:20;13.33;75.17
28175;SHT30;59417;44.788;10.334;2023-02-22T17:57:46;13.34;75.05
28175;SHT30;59417;44.788;10.334;2023-02-22T18:03:57;13.23;75.33
28175;SHT30;59417;44.788;10.334;2023-02-22T18:06:24;13.31;75.10
28175;SHT30;59417;44.788;10.334;2023-02-22T18:08:52;13.34;74.94
28175;SHT30;59417;44.788;10.334;2023-02-22T18:11:22;13.35;74.98